sensor_id;sensor_type;location;lat;lon;timestamp;P1;durP1;ratioP1;P2;durP2;ratioP2
83895;SDS011;74045;42.812;74.638;2024-02-26T00:01:38;120.78;;;36.08;;
83895;SDS011;74045;42.812;74.638;2024-02-26T00:04:04;140.95;;;38.80;;
83895;SDS011;74045;42.812;74.638;2024-02-26T00:06:30;152.00;;;38.92;;
83895;SDS011;74045;42.812;74.638;2024-02-26T00:08:56;123.85;;;33.75;;
83895;SDS011;74045;42.812;74.638;2024-02-26T00:11:21;158.20;;;38.83;;
83895;SDS011;74045;42.812;74.638;2024-02-26T00:13:47;129.98;;;36.38;;
83895;SDS011;74045;42.812;74.638;2024-02-26T00:16:13;164.65;;;39.97;;
83895;SDS011;74045;42.812;74.638;2024-02-26T00:18:39;145.15;;;41.85;;
83895;SDS011;74045;42.812;74.638;2024-02-26T00:21:04;131.93;;;38.30;;
83895;SDS011;74045;42.812;74.638;2024-02-26T00:23:30;151.02;;;39.75;;
83895;SDS011;74045;42.812;74.638;2024-02-26T00:25:56;138.23;;;38.80;;
83895;SDS011;74045;42.812;74.638;2024-02-26T00:28:23;137.32;;;36.97;;
83895;SDS011;74045;42.812;74.638;2024-02-26T00:30:50;155.57;;;41.58;;
83895;SDS011;74045;42.812;74.638;2024-02-26T00:33:21;188.73;;;47.22;;
83895;SDS011;74045;42.812;74.638;2024-02-26T00:35:47;182.52;;;44.00;;
83895;SDS011;74045;42.812;74.638;2024-02-26T00:38:13;147.32;;;38.83;;
83895;SDS011;74045;42.812;74.638;2024-02-26T00:40:39;170.40;;;42.92;;
83895;SDS011;74045;42.812;74.638;2024-02-26T00:43:06;168.95;;;38.50;;
83895;SDS011;74045;42.812;74.638;2024-02-26T00:45:32;150.18;;;36.80;;
83895;SDS011;74045;42.812;74.638;2024-02-26T00:47:58;175.80;;;40.45;;
83895;SDS011;74045;42.812;74.638;2024-02-26T00:50:26;136.85;;;35.03;;
83895;SDS011;74045;42.812;74.638;2024-02-26T00:52:52;161.18;;;40.70;;
83895;SDS011;74045;42.812;74.638;2024-02-26T00:55:18;190.73;;;44.90;;
83895;SDS011;74045;42.812;74.638;2024-02-26T00:57:43;188.65;;;47.20;;
83895;SDS011;74045;42.812;74.638;2024-02-26T01:00:09;200.10;;;45.85;;
83895;SDS011;74045;42.812;74.638;2024-02-26T01:02:36;174.07;;;41.63;;
83895;SDS011;74045;42.812;74.638;2024-02-26T01:05:02;146.20;;;33.95;;
83895;SDS011;74045;42.812;74.638;2024-02-26T01:07:28;153.55;;;40.15;;
83895;SDS011;74045;42.812;74.638;2024-02-26T01:09:53;164.00;;;40.33;;
83895;SDS011;74045;42.812;74.638;2024-02-26T01:12:19;173.45;;;47.17;;
83895;SDS011;74045;42.812;74.638;2024-02-26T01:14:45;194.65;;;47.35;;
83895;SDS011;74045;42.812;74.638;2024-02-26T01:17:11;171.63;;;44.75;;
83895;SDS011;74045;42.812;74.638;2024-02-26T01:19:36;105.03;;;27.83;;
83895;SDS011;74045;42.812;74.638;2024-02-26T01:22:02;141.95;;;37.80;;
83895;SDS011;74045;42.812;74.638;2024-02-26T01:24:29;198.80;;;49.30;;
83895;SDS011;74045;42.812;74.638;2024-02-26T01:26:54;182.20;;;46.75;;
83895;SDS011;74045;42.812;74.638;2024-02-26T01:29:20;206.57;;;50.30;;
83895;SDS011;74045;42.812;74.638;2024-02-26T01:31:46;155.90;;;44.28;;
83895;SDS011;74045;42.812;74.638;2024-02-26T01:34:12;179.27;;;40.88;;
83895;SDS011;74045;42.812;74.638;2024-02-26T01:36:38;167.15;;;44.83;;
83895;SDS011;74045;42.812;74.638;2024-02-26T01:39:03;172.90;;;40.20;;
83895;SDS011;74045;42.812;74.638;2024-02-26T01:41:29;183.45;;;45.88;;
83895;SDS011;74045;42.812;74.638;2024-02-26T01:43:55;177.10;;;41.85;;
83895;SDS011;74045;42.812;74.638;2024-02-26T01:46:20;169.63;;;39.90;;
83895;SDS011;74045;42.812;74.638;2024-02-26T01:48:47;177.70;;;40.08;;
83895;SDS011;74045;42.812;74.638;2024-02-26T01:51:15;139.73;;;35.90;;
83895;SDS011;74045;42.812;74.638;2024-02-26T01:53:42;162.00;;;38.85;;
83895;SDS011;74045;42.812;74.638;2024-02-26T01:56:08;170.93;;;39.80;;
83895;SDS011;74045;42.812;74.638;2024-02-26T01:58:35;153.63;;;37.45;;
83895;SDS011;74045;42.812;74.638;2024-02-26T02:01:02;182.60;;;44.28;;
83895;SDS011;74045;42.812;74.638;2024-02-26T02:03:28;182.68;;;42.78;;
83895;SDS011;74045;42.812;74.638;2024-02-26T02:05:55;173.20;;;43.55;;
83895;SDS011;74045;42.812;74.638;2024-02-26T02:08:21;183.65;;;40.58;;
83895;SDS011;74045;42.812;74.638;2024-02-26T02:10:48;169.90;;;39.67;;
83895;SDS011;74045;42.812;74.638;2024-02-26T02:13:15;166.77;;;39.55;;
83895;SDS011;74045;42.812;74.638;2024-02-26T02:15:40;151.45;;;35.63;;
83895;SDS011;74045;42.812;74.638;2024-02-26T02:18:06;150.88;;;37.83;;
83895;SDS011;74045;42.812;74.638;2024-02-26T02:20:33;147.70;;;37.50;;
83895;SDS011;74045;42.812;74.638;2024-02-26T02:22:59;170.60;;;39.15;;
83895;SDS011;74045;42.812;74.638;2024-02-26T02:25:25;164.13;;;41.30;;
83895;SDS011;74045;42.812;74.638;2024-02-26T02:27:50;163.35;;;40.67;;
83895;SDS011;74045;42.812;74.638;2024-02-26T02:30:19;179.90;;;44.35;;
83895;SDS011;74045;42.812;74.638;2024-02-26T02:32:46;183.73;;;41.35;;
83895;SDS011;74045;42.812;74.638;2024-02-26T02:35:12;177.57;;;38.70;;
83895;SDS011;74045;42.812;74.638;2024-02-26T02:37:38;169.68;;;42.17;;
83895;SDS011;74045;42.812;74.638;2024-02-26T02:40:04;167.57;;;40.47;;
83895;SDS011;74045;42.812;74.638;2024-02-26T02:42:31;133.60;;;36.17;;
83895;SDS011;74045;42.812;74.638;2024-02-26T02:44:56;153.93;;;37.85;;
83895;SDS011;74045;42.812;74.638;2024-02-26T02:47:22;190.77;;;38.65;;
83895;SDS011;74045;42.812;74.638;2024-02-26T02:49:48;181.13;;;43.53;;
83895;SDS011;74045;42.812;74.638;2024-02-26T02:52:16;186.23;;;43.08;;
83895;SDS011;74045;42.812;74.638;2024-02-26T02:54:42;189.23;;;43.22;;
83895;SDS011;74045;42.812;74.638;2024-02-26T02:57:08;165.20;;;41.83;;
83895;SDS011;74045;42.812;74.638;2024-02-26T02:59:34;187.95;;;42.72;;
83895;SDS011;74045;42.812;74.638;2024-02-26T03:02:01;183.93;;;44.25;;
83895;SDS011;74045;42.812;74.638;2024-02-26T03:04:26;162.07;;;38.42;;
83895;SDS011;74045;42.812;74.638;2024-02-26T03:06:52;164.30;;;36.42;;
83895;SDS011;74045;42.812;74.638;2024-02-26T03:09:18;178.63;;;41.30;;
83895;SDS011;74045;42.812;74.638;2024-02-26T03:11:43;204.20;;;42.17;;
83895;SDS011;74045;42.812;74.638;2024-02-26T03:14:09;192.10;;;41.97;;
83895;SDS011;74045;42.812;74.638;2024-02-26T03:16:35;171.77;;;40.15;;
83895;SDS011;74045;42.812;74.638;2024-02-26T03:19:00;146.88;;;37.65;;
83895;SDS011;74045;42.812;74.638;2024-02-26T03:21:28;167.70;;;42.28;;
83895;SDS011;74045;42.812;74.638;2024-02-26T03:23:54;180.32;;;41.65;;
83895;SDS011;74045;42.812;74.638;2024-02-26T03:26:20;201.82;;;44.40;;
83895;SDS011;74045;42.812;74.638;2024-02-26T03:28:46;199.30;;;43.17;;
83895;SDS011;74045;42.812;74.638;2024-02-26T03:31:13;198.20;;;40.75;;
83895;SDS011;74045;42.812;74.638;2024-02-26T03:33:39;162.98;;;38.50;;
83895;SDS011;74045;42.812;74.638;2024-02-26T03:36:05;194.10;;;45.22;;
83895;SDS011;74045;42.812;74.638;2024-02-26T03:38:32;199.23;;;45.50;;
83895;SDS011;74045;42.812;74.638;2024-02-26T03:40:58;196.80;;;40.13;;
83895;SDS011;74045;42.812;74.638;2024-02-26T03:43:24;167.25;;;38.30;;
83895;SDS011;74045;42.812;74.638;2024-02-26T03:45:50;159.00;;;35.25;;
83895;SDS011;74045;42.812;74.638;2024-02-26T03:48:16;181.90;;;40.08;;
83895;SDS011;74045;42.812;74.638;2024-02-26T03:50:41;149.57;;;38.08;;
83895;SDS011;74045;42.812;74.638;2024-02-26T03:53:07;185.57;;;44.67;;
83895;SDS011;74045;42.812;74.638;2024-02-26T03:55:34;157.13;;;38.67;;
83895;SDS011;74045;42.812;74.638;2024-02-26T03:58:00;169.05;;;39.47;;
83895;SDS011;74045;42.812;74.638;2024-02-26T04:00:26;152.98;;;38.72;;
83895;SDS011;74045;42.812;74.638;2024-02-26T04:02:54;158.93;;;37.38;;
83895;SDS011;74045;42.812;74.638;2024-02-26T04:05:20;183.00;;;37.85;;
83895;SDS011;74045;42.812;74.638;2024-02-26T04:07:46;191.07;;;41.67;;
83895;SDS011;74045;42.812;74.638;2024-02-26T04:10:12;213.88;;;49.10;;
83895;SDS011;74045;42.812;74.638;2024-02-26T04:12:41;131.73;;;35.55;;
83895;SDS011;74045;42.812;74.638;2024-02-26T04:15:08;173.02;;;41.67;;
83895;SDS011;74045;42.812;74.638;2024-02-26T04:17:35;170.88;;;42.05;;
83895;SDS011;74045;42.812;74.638;2024-02-26T04:20:02;135.30;;;33.40;;
83895;SDS011;74045;42.812;74.638;2024-02-26T04:22:28;183.65;;;44.83;;
83895;SDS011;74045;42.812;74.638;2024-02-26T04:24:54;164.88;;;39.35;;
83895;SDS011;74045;42.812;74.638;2024-02-26T04:27:20;218.38;;;57.90;;
83895;SDS011;74045;42.812;74.638;2024-02-26T04:29:46;234.27;;;58.85;;
83895;SDS011;74045;42.812;74.638;2024-02-26T04:32:12;209.48;;;56.47;;
83895;SDS011;74045;42.812;74.638;2024-02-26T04:34:37;188.70;;;46.90;;
83895;SDS011;74045;42.812;74.638;2024-02-26T04:37:03;185.35;;;50.22;;
83895;SDS011;74045;42.812;74.638;2024-02-26T04:39:29;174.20;;;41.90;;
83895;SDS011;74045;42.812;74.638;2024-02-26T04:41:55;169.45;;;41.67;;
83895;SDS011;74045;42.812;74.638;2024-02-26T04:44:21;198.43;;;48.25;;
83895;SDS011;74045;42.812;74.638;2024-02-26T04:46:46;183.30;;;46.35;;
83895;SDS011;74045;42.812;74.638;2024-02-26T04:49:12;168.38;;;41.30;;
83895;SDS011;74045;42.812;74.638;2024-02-26T04:51:38;143.93;;;40.33;;
83895;SDS011;74045;42.812;74.638;2024-02-26T04:54:04;180.60;;;44.80;;
83895;SDS011;74045;42.812;74.638;2024-02-26T04:56:30;192.73;;;50.25;;
83895;SDS011;74045;42.812;74.638;2024-02-26T04:58:55;174.13;;;46.97;;
83895;SDS011;74045;42.812;74.638;2024-02-26T05:01:21;178.52;;;45.35;;
83895;SDS011;74045;42.812;74.638;2024-02-26T05:03:47;181.13;;;45.63;;
83895;SDS011;74045;42.812;74.638;2024-02-26T05:06:15;182.15;;;44.95;;
83895;SDS011;74045;42.812;74.638;2024-02-26T05:08:41;181.73;;;45.95;;
83895;SDS011;74045;42.812;74.638;2024-02-26T05:11:06;164.65;;;40.55;;
83895;SDS011;74045;42.812;74.638;2024-02-26T05:13:32;185.82;;;43.97;;
83895;SDS011;74045;42.812;74.638;2024-02-26T05:15:58;179.45;;;46.05;;
83895;SDS011;74045;42.812;74.638;2024-02-26T05:18:24;168.23;;;47.58;;
83895;SDS011;74045;42.812;74.638;2024-02-26T05:20:49;235.30;;;60.97;;
83895;SDS011;74045;42.812;74.638;2024-02-26T05:23:15;180.68;;;44.28;;
83895;SDS011;74045;42.812;74.638;2024-02-26T05:25:41;190.80;;;48.30;;
83895;SDS011;74045;42.812;74.638;2024-02-26T05:28:07;192.05;;;45.95;;
83895;SDS011;74045;42.812;74.638;2024-02-26T05:30:32;181.60;;;45.53;;
83895;SDS011;74045;42.812;74.638;2024-02-26T05:32:58;180.85;;;45.55;;
83895;SDS011;74045;42.812;74.638;2024-02-26T05:35:25;177.82;;;45.65;;
83895;SDS011;74045;42.812;74.638;2024-02-26T05:37:53;172.07;;;49.95;;
83895;SDS011;74045;42.812;74.638;2024-02-26T05:40:19;185.38;;;48.03;;
83895;SDS011;74045;42.812;74.638;2024-02-26T05:42:45;217.23;;;54.58;;
83895;SDS011;74045;42.812;74.638;2024-02-26T05:45:10;179.98;;;48.83;;
83895;SDS011;74045;42.812;74.638;2024-02-26T05:47:36;218.10;;;53.63;;
83895;SDS011;74045;42.812;74.638;2024-02-26T05:50:08;190.32;;;49.70;;
83895;SDS011;74045;42.812;74.638;2024-02-26T05:52:36;205.40;;;51.00;;
83895;SDS011;74045;42.812;74.638;2024-02-26T05:55:03;186.38;;;46.58;;
83895;SDS011;74045;42.812;74.638;2024-02-26T05:57:31;187.25;;;49.85;;
83895;SDS011;74045;42.812;74.638;2024-02-26T05:59:57;196.95;;;49.10;;
83895;SDS011;74045;42.812;74.638;2024-02-26T06:02:25;188.50;;;47.08;;
83895;SDS011;74045;42.812;74.638;2024-02-26T06:04:51;203.65;;;52.75;;
83895;SDS011;74045;42.812;74.638;2024-02-26T06:07:17;205.55;;;53.22;;
83895;SDS011;74045;42.812;74.638;2024-02-26T06:09:43;193.65;;;49.15;;
83895;SDS011;74045;42.812;74.638;2024-02-26T06:12:08;210.57;;;55.00;;
83895;SDS011;74045;42.812;74.638;2024-02-26T06:14:34;220.50;;;54.60;;
83895;SDS011;74045;42.812;74.638;2024-02-26T06:17:02;217.93;;;56.88;;
83895;SDS011;74045;42.812;74.638;2024-02-26T06:19:28;183.40;;;46.83;;
83895;SDS011;74045;42.812;74.638;2024-02-26T06:21:54;226.90;;;55.67;;
83895;SDS011;74045;42.812;74.638;2024-02-26T06:24:19;194.57;;;51.80;;
83895;SDS011;74045;42.812;74.638;2024-02-26T06:26:47;206.02;;;53.72;;
83895;SDS011;74045;42.812;74.638;2024-02-26T06:29:13;192.77;;;50.33;;
83895;SDS011;74045;42.812;74.638;2024-02-26T06:31:39;213.38;;;53.47;;
83895;SDS011;74045;42.812;74.638;2024-02-26T06:34:05;217.00;;;54.10;;
83895;SDS011;74045;42.812;74.638;2024-02-26T06:36:31;205.00;;;55.55;;
83895;SDS011;74045;42.812;74.638;2024-02-26T06:38:57;220.80;;;56.08;;
83895;SDS011;74045;42.812;74.638;2024-02-26T06:41:23;195.73;;;53.72;;
83895;SDS011;74045;42.812;74.638;2024-02-26T06:43:53;240.60;;;60.80;;
83895;SDS011;74045;42.812;74.638;2024-02-26T06:46:19;188.90;;;50.92;;
83895;SDS011;74045;42.812;74.638;2024-02-26T06:48:45;214.68;;;55.35;;
83895;SDS011;74045;42.812;74.638;2024-02-26T06:51:13;201.05;;;55.28;;
83895;SDS011;74045;42.812;74.638;2024-02-26T06:53:39;193.77;;;54.58;;
83895;SDS011;74045;42.812;74.638;2024-02-26T06:56:04;202.32;;;53.05;;
83895;SDS011;74045;42.812;74.638;2024-02-26T06:58:30;195.40;;;49.88;;
83895;SDS011;74045;42.812;74.638;2024-02-26T07:00:56;196.88;;;54.25;;
83895;SDS011;74045;42.812;74.638;2024-02-26T07:03:22;219.07;;;54.10;;
83895;SDS011;74045;42.812;74.638;2024-02-26T07:05:49;223.98;;;57.63;;
83895;SDS011;74045;42.812;74.638;2024-02-26T07:08:15;229.90;;;60.58;;
83895;SDS011;74045;42.812;74.638;2024-02-26T07:10:41;196.55;;;56.35;;
83895;SDS011;74045;42.812;74.638;2024-02-26T07:13:08;206.27;;;53.58;;
83895;SDS011;74045;42.812;74.638;2024-02-26T07:15:34;211.20;;;53.75;;
83895;SDS011;74045;42.812;74.638;2024-02-26T07:18:00;202.35;;;50.22;;
83895;SDS011;74045;42.812;74.638;2024-02-26T07:20:31;199.32;;;54.17;;
83895;SDS011;74045;42.812;74.638;2024-02-26T07:22:57;183.80;;;51.42;;
83895;SDS011;74045;42.812;74.638;2024-02-26T07:25:23;213.23;;;54.53;;
83895;SDS011;74045;42.812;74.638;2024-02-26T07:27:52;183.90;;;49.88;;
83895;SDS011;74045;42.812;74.638;2024-02-26T07:30:18;205.82;;;55.00;;
83895;SDS011;74045;42.812;74.638;2024-02-26T07:32:44;206.13;;;54.55;;
83895;SDS011;74045;42.812;74.638;2024-02-26T07:35:09;195.13;;;50.80;;
83895;SDS011;74045;42.812;74.638;2024-02-26T07:37:35;212.70;;;54.72;;
83895;SDS011;74045;42.812;74.638;2024-02-26T07:40:01;208.90;;;54.95;;
83895;SDS011;74045;42.812;74.638;2024-02-26T07:42:28;232.07;;;55.88;;
83895;SDS011;74045;42.812;74.638;2024-02-26T07:44:54;215.85;;;58.95;;
83895;SDS011;74045;42.812;74.638;2024-02-26T07:47:20;210.52;;;56.13;;
83895;SDS011;74045;42.812;74.638;2024-02-26T07:49:46;206.88;;;58.50;;
83895;SDS011;74045;42.812;74.638;2024-02-26T07:52:12;217.13;;;55.63;;
83895;SDS011;74045;42.812;74.638;2024-02-26T07:54:38;204.25;;;51.30;;
83895;SDS011;74045;42.812;74.638;2024-02-26T07:57:03;214.73;;;56.67;;
83895;SDS011;74045;42.812;74.638;2024-02-26T07:59:30;204.88;;;53.85;;
83895;SDS011;74045;42.812;74.638;2024-02-26T08:01:57;197.68;;;54.38;;
83895;SDS011;74045;42.812;74.638;2024-02-26T08:04:22;219.48;;;57.08;;
83895;SDS011;74045;42.812;74.638;2024-02-26T08:06:48;213.55;;;57.03;;
83895;SDS011;74045;42.812;74.638;2024-02-26T08:09:14;190.93;;;53.35;;
83895;SDS011;74045;42.812;74.638;2024-02-26T08:11:40;191.52;;;54.30;;
83895;SDS011;74045;42.812;74.638;2024-02-26T08:14:05;199.25;;;52.80;;
83895;SDS011;74045;42.812;74.638;2024-02-26T08:16:31;203.23;;;54.35;;
83895;SDS011;74045;42.812;74.638;2024-02-26T08:18:57;192.63;;;53.30;;
83895;SDS011;74045;42.812;74.638;2024-02-26T08:21:23;197.30;;;55.35;;
83895;SDS011;74045;42.812;74.638;2024-02-26T08:23:49;197.50;;;51.60;;
83895;SDS011;74045;42.812;74.638;2024-02-26T08:26:14;197.52;;;53.88;;
83895;SDS011;74045;42.812;74.638;2024-02-26T08:28:40;166.35;;;45.50;;
83895;SDS011;74045;42.812;74.638;2024-02-26T08:31:06;178.77;;;45.17;;
83895;SDS011;74045;42.812;74.638;2024-02-26T08:33:32;179.10;;;49.65;;
83895;SDS011;74045;42.812;74.638;2024-02-26T08:36:03;187.50;;;50.15;;
83895;SDS011;74045;42.812;74.638;2024-02-26T08:38:30;185.38;;;49.67;;
83895;SDS011;74045;42.812;74.638;2024-02-26T08:40:55;179.50;;;50.13;;
83895;SDS011;74045;42.812;74.638;2024-02-26T08:43:21;201.80;;;54.60;;
83895;SDS011;74045;42.812;74.638;2024-02-26T08:45:47;198.75;;;51.33;;
83895;SDS011;74045;42.812;74.638;2024-02-26T08:48:12;188.23;;;51.92;;
83895;SDS011;74045;42.812;74.638;2024-02-26T08:50:38;192.60;;;48.38;;
83895;SDS011;74045;42.812;74.638;2024-02-26T08:53:04;189.68;;;52.72;;
83895;SDS011;74045;42.812;74.638;2024-02-26T08:55:32;186.68;;;48.75;;
83895;SDS011;74045;42.812;74.638;2024-02-26T08:57:58;182.07;;;52.10;;
83895;SDS011;74045;42.812;74.638;2024-02-26T09:00:24;174.65;;;48.30;;
83895;SDS011;74045;42.812;74.638;2024-02-26T09:02:50;183.82;;;44.63;;
83895;SDS011;74045;42.812;74.638;2024-02-26T09:05:16;188.38;;;50.67;;
83895;SDS011;74045;42.812;74.638;2024-02-26T09:07:41;189.23;;;52.17;;
83895;SDS011;74045;42.812;74.638;2024-02-26T09:10:07;206.52;;;55.72;;
83895;SDS011;74045;42.812;74.638;2024-02-26T09:12:36;197.20;;;54.38;;
83895;SDS011;74045;42.812;74.638;2024-02-26T09:15:03;193.07;;;52.67;;
83895;SDS011;74045;42.812;74.638;2024-02-26T09:17:29;161.35;;;49.97;;
83895;SDS011;74045;42.812;74.638;2024-02-26T09:19:55;183.43;;;54.60;;
83895;SDS011;74045;42.812;74.638;2024-02-26T09:22:20;192.52;;;52.75;;
83895;SDS011;74045;42.812;74.638;2024-02-26T09:24:46;153.80;;;45.63;;
83895;SDS011;74045;42.812;74.638;2024-02-26T09:27:12;197.38;;;52.20;;
83895;SDS011;74045;42.812;74.638;2024-02-26T09:29:37;208.23;;;54.85;;
83895;SDS011;74045;42.812;74.638;2024-02-26T09:32:03;185.68;;;55.13;;
83895;SDS011;74045;42.812;74.638;2024-02-26T09:34:29;185.30;;;52.58;;
83895;SDS011;74045;42.812;74.638;2024-02-26T09:36:55;192.82;;;54.47;;
83895;SDS011;74045;42.812;74.638;2024-02-26T09:39:20;177.32;;;50.10;;
83895;SDS011;74045;42.812;74.638;2024-02-26T09:41:47;211.02;;;54.13;;
83895;SDS011;74045;42.812;74.638;2024-02-26T09:44:18;193.65;;;50.63;;
83895;SDS011;74045;42.812;74.638;2024-02-26T09:46:46;195.52;;;52.50;;
83895;SDS011;74045;42.812;74.638;2024-02-26T09:49:14;181.77;;;51.15;;
83895;SDS011;74045;42.812;74.638;2024-02-26T09:51:41;183.70;;;52.90;;
83895;SDS011;74045;42.812;74.638;2024-02-26T09:54:10;194.65;;;53.35;;
83895;SDS011;74045;42.812;74.638;2024-02-26T09:56:41;197.88;;;51.33;;
83895;SDS011;74045;42.812;74.638;2024-02-26T09:59:10;200.38;;;53.80;;
83895;SDS011;74045;42.812;74.638;2024-02-26T10:01:39;179.68;;;48.08;;
83895;SDS011;74045;42.812;74.638;2024-02-26T10:04:08;188.52;;;48.50;;
83895;SDS011;74045;42.812;74.638;2024-02-26T10:06:36;201.75;;;53.22;;
83895;SDS011;74045;42.812;74.638;2024-02-26T10:09:03;196.25;;;54.75;;
83895;SDS011;74045;42.812;74.638;2024-02-26T10:11:32;189.45;;;53.38;;
83895;SDS011;74045;42.812;74.638;2024-02-26T10:13:58;166.65;;;49.70;;
83895;SDS011;74045;42.812;74.638;2024-02-26T10:16:24;173.50;;;48.80;;
83895;SDS011;74045;42.812;74.638;2024-02-26T10:18:52;178.60;;;46.92;;
83895;SDS011;74045;42.812;74.638;2024-02-26T10:21:21;163.40;;;50.38;;
83895;SDS011;74045;42.812;74.638;2024-02-26T10:23:48;147.35;;;45.25;;
83895;SDS011;74045;42.812;74.638;2024-02-26T10:26:15;162.10;;;45.90;;
83895;SDS011;74045;42.812;74.638;2024-02-26T10:28:42;168.88;;;47.60;;
83895;SDS011;74045;42.812;74.638;2024-02-26T10:31:10;182.63;;;46.80;;
83895;SDS011;74045;42.812;74.638;2024-02-26T10:33:36;164.07;;;45.15;;
83895;SDS011;74045;42.812;74.638;2024-02-26T10:36:06;184.57;;;46.25;;
83895;SDS011;74045;42.812;74.638;2024-02-26T10:38:36;174.10;;;48.08;;
83895;SDS011;74045;42.812;74.638;2024-02-26T10:41:13;181.63;;;49.72;;
83895;SDS011;74045;42.812;74.638;2024-02-26T10:43:42;167.75;;;45.78;;
83895;SDS011;74045;42.812;74.638;2024-02-26T10:46:09;161.57;;;45.38;;
83895;SDS011;74045;42.812;74.638;2024-02-26T10:48:35;140.88;;;38.30;;
83895;SDS011;74045;42.812;74.638;2024-02-26T10:51:01;171.38;;;48.00;;
83895;SDS011;74045;42.812;74.638;2024-02-26T10:53:28;193.02;;;52.15;;
83895;SDS011;74045;42.812;74.638;2024-02-26T10:56:03;187.25;;;50.17;;
83895;SDS011;74045;42.812;74.638;2024-02-26T10:58:32;163.75;;;49.75;;
83895;SDS011;74045;42.812;74.638;2024-02-26T11:00:59;181.18;;;50.08;;
83895;SDS011;74045;42.812;74.638;2024-02-26T11:03:25;163.50;;;44.25;;
83895;SDS011;74045;42.812;74.638;2024-02-26T11:05:52;182.82;;;49.38;;
83895;SDS011;74045;42.812;74.638;2024-02-26T11:08:21;170.00;;;44.40;;
83895;SDS011;74045;42.812;74.638;2024-02-26T11:10:50;222.38;;;57.78;;
83895;SDS011;74045;42.812;74.638;2024-02-26T11:13:18;210.52;;;58.08;;
83895;SDS011;74045;42.812;74.638;2024-02-26T11:15:47;216.88;;;57.13;;
83895;SDS011;74045;42.812;74.638;2024-02-26T11:18:16;229.70;;;59.17;;
83895;SDS011;74045;42.812;74.638;2024-02-26T11:20:44;162.15;;;44.10;;
83895;SDS011;74045;42.812;74.638;2024-02-26T11:23:11;171.65;;;46.40;;
83895;SDS011;74045;42.812;74.638;2024-02-26T11:25:37;194.23;;;51.70;;
83895;SDS011;74045;42.812;74.638;2024-02-26T11:28:05;180.23;;;49.47;;
83895;SDS011;74045;42.812;74.638;2024-02-26T11:30:36;157.93;;;47.15;;
83895;SDS011;74045;42.812;74.638;2024-02-26T11:33:08;168.85;;;49.17;;
83895;SDS011;74045;42.812;74.638;2024-02-26T11:35:38;185.82;;;53.33;;
83895;SDS011;74045;42.812;74.638;2024-02-26T11:38:05;188.02;;;52.75;;
83895;SDS011;74045;42.812;74.638;2024-02-26T11:40:32;169.70;;;47.08;;
83895;SDS011;74045;42.812;74.638;2024-02-26T11:43:04;176.93;;;47.72;;
83895;SDS011;74045;42.812;74.638;2024-02-26T11:48:16;166.75;;;46.83;;
83895;SDS011;74045;42.812;74.638;2024-02-26T11:50:46;168.18;;;48.92;;
83895;SDS011;74045;42.812;74.638;2024-02-26T11:53:30;172.45;;;47.47;;
83895;SDS011;74045;42.812;74.638;2024-02-26T11:56:13;161.52;;;43.58;;
83895;SDS011;74045;42.812;74.638;2024-02-26T11:58:39;150.90;;;39.55;;
83895;SDS011;74045;42.812;74.638;2024-02-26T12:01:05;147.60;;;45.97;;
83895;SDS011;74045;42.812;74.638;2024-02-26T12:03:51;200.57;;;51.13;;
83895;SDS011;74045;42.812;74.638;2024-02-26T12:06:20;151.50;;;41.10;;
83895;SDS011;74045;42.812;74.638;2024-02-26T12:08:46;154.25;;;46.13;;
83895;SDS011;74045;42.812;74.638;2024-02-26T12:11:15;170.73;;;48.42;;
83895;SDS011;74045;42.812;74.638;2024-02-26T12:13:45;172.85;;;49.00;;
83895;SDS011;74045;42.812;74.638;2024-02-26T12:16:21;180.88;;;49.90;;
83895;SDS011;74045;42.812;74.638;2024-02-26T12:19:08;178.35;;;45.00;;
83895;SDS011;74045;42.812;74.638;2024-02-26T12:21:35;159.45;;;47.72;;
83895;SDS011;74045;42.812;74.638;2024-02-26T12:24:11;148.30;;;44.25;;
83895;SDS011;74045;42.812;74.638;2024-02-26T12:26:43;171.85;;;47.70;;
83895;SDS011;74045;42.812;74.638;2024-02-26T12:29:09;161.65;;;46.70;;
83895;SDS011;74045;42.812;74.638;2024-02-26T12:31:36;190.25;;;57.08;;
83895;SDS011;74045;42.812;74.638;2024-02-26T12:34:04;190.95;;;45.70;;
83895;SDS011;74045;42.812;74.638;2024-02-26T12:36:30;198.75;;;50.10;;
83895;SDS011;74045;42.812;74.638;2024-02-26T12:38:56;159.95;;;43.83;;
83895;SDS011;74045;42.812;74.638;2024-02-26T12:41:22;163.90;;;47.15;;
83895;SDS011;74045;42.812;74.638;2024-02-26T12:43:48;162.80;;;46.58;;
83895;SDS011;74045;42.812;74.638;2024-02-26T12:46:14;170.23;;;45.38;;
83895;SDS011;74045;42.812;74.638;2024-02-26T12:48:44;181.80;;;49.78;;
83895;SDS011;74045;42.812;74.638;2024-02-26T12:51:15;186.73;;;49.58;;
83895;SDS011;74045;42.812;74.638;2024-02-26T12:53:43;155.85;;;44.40;;
83895;SDS011;74045;42.812;74.638;2024-02-26T12:56:11;201.73;;;55.55;;
83895;SDS011;74045;42.812;74.638;2024-02-26T12:58:39;166.02;;;46.05;;
83895;SDS011;74045;42.812;74.638;2024-02-26T13:01:06;191.15;;;46.03;;
83895;SDS011;74045;42.812;74.638;2024-02-26T13:03:33;209.15;;;55.70;;
83895;SDS011;74045;42.812;74.638;2024-02-26T13:06:01;191.55;;;52.97;;
83895;SDS011;74045;42.812;74.638;2024-02-26T13:08:28;189.18;;;51.58;;
83895;SDS011;74045;42.812;74.638;2024-02-26T13:10:54;160.18;;;42.90;;
83895;SDS011;74045;42.812;74.638;2024-02-26T13:13:19;138.43;;;40.58;;
83895;SDS011;74045;42.812;74.638;2024-02-26T13:15:45;161.27;;;45.72;;
83895;SDS011;74045;42.812;74.638;2024-02-26T13:18:14;170.85;;;48.72;;
83895;SDS011;74045;42.812;74.638;2024-02-26T13:20:40;142.68;;;43.30;;
83895;SDS011;74045;42.812;74.638;2024-02-26T13:23:07;163.38;;;46.10;;
83895;SDS011;74045;42.812;74.638;2024-02-26T13:25:35;161.63;;;44.33;;
83895;SDS011;74045;42.812;74.638;2024-02-26T13:28:24;164.95;;;49.13;;
83895;SDS011;74045;42.812;74.638;2024-02-26T13:30:53;131.05;;;39.33;;
83895;SDS011;74045;42.812;74.638;2024-02-26T13:33:29;136.73;;;42.60;;
83895;SDS011;74045;42.812;74.638;2024-02-26T13:35:55;162.88;;;47.03;;
83895;SDS011;74045;42.812;74.638;2024-02-26T13:38:22;163.85;;;44.33;;
83895;SDS011;74045;42.812;74.638;2024-02-26T13:40:49;173.77;;;49.67;;
83895;SDS011;74045;42.812;74.638;2024-02-26T13:43:15;173.50;;;48.30;;
83895;SDS011;74045;42.812;74.638;2024-02-26T13:45:42;126.47;;;40.22;;
83895;SDS011;74045;42.812;74.638;2024-02-26T13:48:09;186.20;;;49.95;;
83895;SDS011;74045;42.812;74.638;2024-02-26T13:50:38;175.65;;;49.00;;
83895;SDS011;74045;42.812;74.638;2024-02-26T13:53:04;167.60;;;47.35;;
83895;SDS011;74045;42.812;74.638;2024-02-26T13:55:30;188.13;;;53.53;;
83895;SDS011;74045;42.812;74.638;2024-02-26T13:57:57;204.43;;;52.28;;